Time;durP1;ratioP1;P1;durP2;ratioP2;P2;SDS_P1;SDS_P2;PMS_P1;PMS_P2;Temp;Humidity;BMP_temperature;BMP_pressure;BME280_temperature;BME280_humidity;BME280_pressure;Samples;Min_cycle;Max_cycle;Signal;HPM_P1;HPM_P2
2021/01/27 00:01:01;;;;;;;9.93;3.95;;;3.10;98.10;;;;;;5103037;28;20101;-69
2021/01/27 00:03:27;;;;;;;10.88;4.60;;;3.20;97.80;;;;;;5102003;28;20121;-69
2021/01/27 00:05:54;;;;;;;6.10;3.63;;;3.30;97.80;;;;;;5095755;28;20505;-69
2021/01/27 00:08:21;;;;;;;8.85;4.00;;;3.20;97.50;;;;;;5104744;28;20052;-69
2021/01/27 00:10:48;;;;;;;9.48;4.18;;;3.70;97.40;;;;;;5099379;28;20467;-68
2021/01/27 00:13:18;;;;;;;9.45;4.15;;;3.80;97.10;;;;;;5104451;28;20055;-68
2021/01/27 00:15:46;;;;;;;10.85;4.38;;;3.20;96.70;;;;;;5102334;28;20407;-68
2021/01/27 00:18:16;;;;;;;8.05;3.88;;;3.20;97.20;;;;;;5099962;28;20070;-68
2021/01/27 00:20:42;;;;;;;8.20;3.87;;;3.70;97.00;;;;;;5102053;28;20106;-70
2021/01/27 00:23:09;;;;;;;7.68;3.80;;;3.70;96.60;;;;;;5099104;28;20343;-70
2021/01/27 00:25:37;;;;;;;11.05;4.07;;;3.30;96.60;;;;;;5101852;28;20444;-70
2021/01/27 00:28:05;;;;;;;7.53;4.28;;;3.20;96.50;;;;;;5105592;28;20043;-70
2021/01/27 00:30:38;;;;;;;10.77;3.97;;;3.40;96.90;;;;;;5100237;27;20056;-70
2021/01/27 00:33:06;;;;;;;9.80;4.18;;;3.20;96.90;;;;;;5109784;28;20067;-69
2021/01/27 00:35:36;;;;;;;11.50;3.92;;;3.20;96.80;;;;;;5105330;28;20101;-69
2021/01/27 00:38:09;;;;;;;9.75;3.70;;;3.10;96.90;;;;;;5109307;28;20048;-69
2021/01/27 00:40:35;;;;;;;6.90;3.50;;;3.10;97.10;;;;;;5106556;28;20113;-69
2021/01/27 00:43:02;;;;;;;10.60;4.07;;;2.80;97.50;;;;;;5111955;28;20048;-69
2021/01/27 00:45:28;;;;;;;12.13;4.13;;;3.10;97.60;;;;;;5106732;28;20090;-69
2021/01/27 00:47:54;;;;;;;10.88;3.72;;;3.00;97.60;;;;;;5105434;28;20124;-69
2021/01/27 00:50:21;;;;;;;9.65;4.47;;;3.10;97.50;;;;;;5112995;28;20047;-69
2021/01/27 00:52:47;;;;;;;8.07;3.90;;;3.30;97.20;;;;;;5110419;28;20394;-69
2021/01/27 00:55:16;;;;;;;11.98;3.75;;;3.20;96.80;;;;;;5112141;27;20047;-69
2021/01/27 00:57:42;;;;;;;7.10;3.97;;;3.00;97.10;;;;;;5111726;28;20082;-69
2021/01/27 01:00:21;;;;;;;8.85;3.70;;;3.00;97.10;;;;;;5108245;28;20453;-68
2021/01/27 01:02:48;;;;;;;8.45;4.13;;;3.10;97.10;;;;;;5112082;28;20640;-69
2021/01/27 01:05:24;;;;;;;8.73;4.35;;;2.90;97.10;;;;;;5110953;28;20039;-69
2021/01/27 01:07:51;;;;;;;8.93;3.88;;;3.00;97.30;;;;;;5109742;28;20082;-69
2021/01/27 01:10:35;;;;;;;8.93;4.18;;;3.00;97.30;;;;;;5107760;28;20062;-69
2021/01/27 01:13:04;;;;;;;9.68;4.15;;;3.00;97.40;;;;;;5111087;28;20102;-69
2021/01/27 01:15:30;;;;;;;6.82;3.72;;;3.20;97.20;;;;;;5108967;28;20458;-69
2021/01/27 01:17:57;;;;;;;8.02;4.10;;;3.20;97.20;;;;;;5112244;28;20043;-68
2021/01/27 01:20:24;;;;;;;8.23;3.67;;;3.00;97.20;;;;;;5106891;28;20604;-69
2021/01/27 01:22:54;;;;;;;9.88;3.72;;;3.00;97.20;;;;;;5111546;27;20466;-69
2021/01/27 01:25:24;;;;;;;10.00;4.10;;;3.20;97.60;;;;;;5107997;27;20060;-70
2021/01/27 01:27:50;;;;;;;8.25;3.92;;;3.10;97.10;;;;;;5103165;28;20067;-69
2021/01/27 01:30:31;;;;;;;7.05;3.50;;;3.00;97.20;;;;;;5107740;27;20055;-69
2021/01/27 01:33:01;;;;;;;11.43;4.07;;;3.20;96.70;;;;;;5107899;28;20048;-69
2021/01/27 01:35:28;;;;;;;9.15;4.43;;;3.50;96.70;;;;;;5102650;27;20071;-70
2021/01/27 01:37:55;;;;;;;7.57;3.80;;;3.50;96.40;;;;;;5097259;28;20116;-69
2021/01/27 01:40:33;;;;;;;8.80;3.92;;;3.50;96.60;;;;;;5113700;27;20390;-69
2021/01/27 01:43:20;;;;;;;10.50;4.00;;;3.10;96.50;;;;;;5111410;28;20067;-69
2021/01/27 01:46:11;;;;;;;7.75;3.78;;;3.30;96.80;;;;;;5103647;28;20484;-70
2021/01/27 01:48:50;;;;;;;9.18;4.38;;;3.40;96.30;;;;;;5107366;28;20043;-70
2021/01/27 01:51:31;;;;;;;7.05;4.28;;;3.20;96.30;;;;;;5107812;28;20055;-70
2021/01/27 01:54:01;;;;;;;8.63;4.55;;;3.20;96.40;;;;;;5106611;28;20437;-69
2021/01/27 01:56:32;;;;;;;8.43;4.53;;;3.20;96.50;;;;;;5109468;28;20055;-69
2021/01/27 01:59:06;;;;;;;8.73;4.22;;;3.00;96.50;;;;;;5111784;28;20082;-70
2021/01/27 02:01:33;;;;;;;7.60;4.32;;;3.30;96.20;;;;;;5107003;28;20036;-69
2021/01/27 02:04:01;;;;;;;9.93;4.25;;;3.20;96.30;;;;;;5110485;28;20498;-70
2021/01/27 02:06:28;;;;;;;7.68;4.28;;;3.00;96.40;;;;;;5108514;28;20109;-69
2021/01/27 02:08:57;;;;;;;12.40;4.20;;;3.00;96.90;;;;;;5107147;28;20463;-69
2021/01/27 02:11:45;;;;;;;12.02;4.32;;;3.00;96.70;;;;;;5106338;28;20138;-69
2021/01/27 02:14:29;;;;;;;7.53;3.72;;;2.90;96.70;;;;;;5111469;28;20498;-69
2021/01/27 02:17:10;;;;;;;11.05;4.20;;;3.00;96.50;;;;;;5108037;28;20069;-70
2021/01/27 02:20:18;;;;;;;9.55;4.10;;;3.20;96.60;;;;;;5106889;28;20047;-69
2021/01/27 02:23:05;;;;;;;11.80;4.20;;;2.90;96.50;;;;;;5106407;28;20093;-70
2021/01/27 02:25:57;;;;;;;12.88;3.70;;;3.00;96.60;;;;;;5110550;28;20071;-70
2021/01/27 02:28:42;;;;;;;9.77;4.25;;;3.10;96.60;;;;;;5106856;28;20448;-70
2021/01/27 02:31:17;;;;;;;7.70;3.67;;;3.00;96.80;;;;;;5106184;28;20056;-69
2021/01/27 02:34:24;;;;;;;10.45;4.47;;;3.10;96.30;;;;;;5112140;28;20082;-70
2021/01/27 02:36:57;;;;;;;9.68;3.47;;;3.00;96.40;;;;;;5109915;28;20078;-69
2021/01/27 02:39:29;;;;;;;8.55;4.00;;;3.20;96.50;;;;;;5107941;28;20387;-69
2021/01/27 02:42:09;;;;;;;8.18;4.25;;;3.20;96.00;;;;;;5109634;28;20658;-69
2021/01/27 02:44:44;;;;;;;9.52;4.13;;;3.20;95.80;;;;;;5109724;28;20047;-69
2021/01/27 02:47:20;;;;;;;8.73;4.15;;;3.40;95.80;;;;;;5103588;28;20082;-69
2021/01/27 02:50:05;;;;;;;12.45;4.85;;;3.20;95.80;;;;;;5109081;28;20043;-69
2021/01/27 02:52:39;;;;;;;8.35;4.60;;;3.30;95.90;;;;;;5111610;28;20044;-69
2021/01/27 02:55:23;;;;;;;10.02;4.53;;;3.30;95.90;;;;;;5106201;28;20067;-70
2021/01/27 02:58:02;;;;;;;10.75;4.75;;;3.40;96.00;;;;;;5105394;28;20469;-70
2021/01/27 03:00:34;;;;;;;10.23;4.72;;;3.50;96.00;;;;;;5108006;28;20043;-69
2021/01/27 03:03:34;;;;;;;8.90;4.45;;;3.40;95.70;;;;;;5110338;28;20068;-70
2021/01/27 03:06:06;;;;;;;9.80;4.55;;;3.50;95.70;;;;;;5097735;28;20051;-69
2021/01/27 03:08:43;;;;;;;9.20;4.18;;;3.50;95.60;;;;;;5109347;27;20537;-70
2021/01/27 03:11:17;;;;;;;9.35;4.28;;;3.20;95.90;;;;;;5106164;28;20463;-70
2021/01/27 03:13:46;;;;;;;8.57;4.90;;;3.20;95.50;;;;;;5108043;28;20083;-70
2021/01/27 03:16:22;;;;;;;9.70;4.50;;;3.20;95.60;;;;;;5107793;28;20139;-70
2021/01/27 03:19:22;;;;;;;9.52;3.90;;;3.30;95.50;;;;;;5110395;28;20058;-70
2021/01/27 03:21:59;;;;;;;9.02;4.22;;;3.30;95.60;;;;;;5081675;28;20047;-70
2021/01/27 03:24:29;;;;;;;9.23;4.25;;;3.00;95.30;;;;;;5106965;28;20188;-70
2021/01/27 03:27:04;;;;;;;11.90;5.10;;;3.00;95.60;;;;;;5115844;28;20498;-70
2021/01/27 03:29:47;;;;;;;8.13;4.22;;;3.10;95.30;;;;;;5108321;28;20780;-70
2021/01/27 03:32:39;;;;;;;8.52;4.38;;;3.00;95.50;;;;;;5106011;28;20166;-70
2021/01/27 03:35:18;;;;;;;9.55;4.68;;;2.90;95.30;;;;;;5101981;28;20048;-70
2021/01/27 03:38:01;;;;;;;8.35;3.95;;;3.00;95.20;;;;;;5104742;28;20468;-69
2021/01/27 03:40:28;;;;;;;9.63;3.70;;;3.00;95.50;;;;;;5105708;28;20043;-70
2021/01/27 03:43:12;;;;;;;7.15;4.28;;;2.90;95.40;;;;;;5104929;28;20048;-70
2021/01/27 03:45:47;;;;;;;9.52;4.68;;;2.80;95.60;;;;;;5106242;28;20040;-70
2021/01/27 03:48:36;;;;;;;8.20;3.88;;;2.70;95.80;;;;;;5109149;28;20147;-70
2021/01/27 03:51:04;;;;;;;10.15;4.25;;;2.70;95.90;;;;;;5107504;28;20043;-69
2021/01/27 03:53:32;;;;;;;9.52;4.50;;;2.60;96.20;;;;;;5111928;28;20047;-69
2021/01/27 03:56:15;;;;;;;8.43;4.10;;;2.60;96.30;;;;;;5106525;28;20051;-69
2021/01/27 03:58:45;;;;;;;9.43;4.38;;;2.50;96.30;;;;;;5109958;28;20123;-69
2021/01/27 04:01:21;;;;;;;10.30;4.43;;;2.50;96.40;;;;;;5106351;28;20166;-69
2021/01/27 04:03:50;;;;;;;9.85;4.65;;;2.50;96.60;;;;;;5105843;28;20070;-69
2021/01/27 04:06:17;;;;;;;9.93;4.73;;;2.50;96.70;;;;;;5113609;28;20131;-69
2021/01/27 04:08:43;;;;;;;11.63;4.80;;;2.70;96.70;;;;;;5112926;28;20078;-69
2021/01/27 04:11:10;;;;;;;10.15;4.75;;;2.60;96.60;;;;;;5110119;28;20150;-69
2021/01/27 04:13:37;;;;;;;7.55;4.50;;;2.60;96.50;;;;;;5115744;28;20100;-69
2021/01/27 04:16:04;;;;;;;6.47;4.38;;;2.50;96.70;;;;;;5112061;28;20071;-69
2021/01/27 04:18:31;;;;;;;9.93;5.03;;;2.70;96.50;;;;;;5108868;28;20586;-70
2021/01/27 04:20:57;;;;;;;10.40;5.40;;;2.50;96.70;;;;;;5115100;28;20075;-69
2021/01/27 04:23:24;;;;;;;13.00;5.55;;;2.60;96.90;;;;;;5112112;27;20505;-70
2021/01/27 04:25:50;;;;;;;11.85;5.28;;;2.90;96.90;;;;;;5120559;27;20063;-70
2021/01/27 04:28:16;;;;;;;14.20;4.95;;;2.80;97.10;;;;;;5110743;28;20125;-70
2021/01/27 04:30:43;;;;;;;11.60;4.82;;;2.70;96.80;;;;;;5104898;28;20084;-69
2021/01/27 04:33:11;;;;;;;8.82;4.90;;;2.90;97.30;;;;;;5113017;28;20075;-69
2021/01/27 04:35:38;;;;;;;10.50;4.68;;;2.60;97.50;;;;;;5114496;28;20047;-68
2021/01/27 04:38:05;;;;;;;12.88;5.75;;;2.60;97.40;;;;;;5105862;28;20059;-70
2021/01/27 04:40:34;;;;;;;9.60;4.88;;;2.60;97.60;;;;;;5103513;28;20044;-69
2021/01/27 04:43:04;;;;;;;10.13;5.35;;;2.60;97.40;;;;;;5110091;28;20071;-69
2021/01/27 04:45:30;;;;;;;11.13;5.55;;;2.70;97.60;;;;;;5099309;28;20464;-69
2021/01/27 04:48:10;;;;;;;10.38;5.60;;;3.00;97.10;;;;;;5114486;28;20040;-68
2021/01/27 04:51:02;;;;;;;10.77;5.20;;;2.90;96.90;;;;;;5109417;28;20059;-69
2021/01/27 04:53:51;;;;;;;9.38;5.03;;;2.90;96.50;;;;;;5104212;28;20059;-69
2021/01/27 04:56:42;;;;;;;17.13;5.25;;;3.00;96.50;;;;;;5113392;27;20569;-70
2021/01/27 04:59:18;;;;;;;9.68;5.60;;;3.10;96.40;;;;;;5111515;28;20130;-70
2021/01/27 05:01:53;;;;;;;9.20;5.15;;;3.00;96.30;;;;;;5107396;28;20050;-70
2021/01/27 05:04:38;;;;;;;10.30;5.65;;;2.90;96.30;;;;;;5110733;28;20052;-70
2021/01/27 05:07:12;;;;;;;12.70;5.85;;;3.00;96.80;;;;;;5112557;28;20074;-68
2021/01/27 05:09:53;;;;;;;12.38;5.57;;;2.90;97.00;;;;;;5110597;28;20055;-68
2021/01/27 05:12:21;;;;;;;9.15;5.13;;;3.00;97.00;;;;;;5106656;28;20109;-69
2021/01/27 05:14:49;;;;;;;9.57;5.50;;;3.00;97.20;;;;;;5113163;28;20432;-69
2021/01/27 05:17:18;;;;;;;13.50;5.55;;;3.20;97.10;;;;;;5107501;28;20051;-69
2021/01/27 05:19:47;;;;;;;;;;;3.40;97.30;;;;;;5111829;27;20437;-68
2021/01/27 05:22:15;;;;;;;11.70;5.20;;;3.20;97.20;;;;;;5109737;28;20398;-69
2021/01/27 05:24:42;;;;;;;10.35;5.53;;;3.00;97.40;;;;;;5107325;28;20072;-68
2021/01/27 05:27:26;;;;;;;9.15;5.55;;;3.10;97.40;;;;;;5112850;28;20441;-68
2021/01/27 05:30:07;;;;;;;10.95;5.82;;;3.20;97.40;;;;;;5109018;28;20180;-69
2021/01/27 05:32:49;;;;;;;14.18;5.97;;;3.00;97.20;;;;;;5103631;28;20044;-69
2021/01/27 05:35:34;;;;;;;11.15;6.10;;;3.00;97.50;;;;;;5109089;28;20067;-68
2021/01/27 05:38:23;;;;;;;16.00;5.95;;;3.10;97.40;;;;;;5111084;28;20201;-69
2021/01/27 05:40:52;;;;;;;11.48;5.80;;;3.40;97.30;;;;;;5107956;28;20043;-69
2021/01/27 05:43:24;;;;;;;10.35;5.40;;;3.00;97.20;;;;;;5110216;28;20082;-70
2021/01/27 05:45:51;;;;;;;8.65;5.15;;;3.10;97.20;;;;;;5108936;28;20044;-70
2021/01/27 05:48:23;;;;;;;16.63;6.03;;;3.10;96.90;;;;;;5103116;28;20101;-70
2021/01/27 05:50:51;;;;;;;10.43;5.68;;;3.00;97.40;;;;;;5110594;28;20418;-70
2021/01/27 05:53:17;;;;;;;12.95;5.82;;;3.20;97.30;;;;;;5107399;28;20109;-70
2021/01/27 05:56:17;;;;;;;11.82;5.72;;;3.10;97.10;;;;;;5101006;28;20071;-70
2021/01/27 05:58:59;;;;;;;15.55;5.68;;;3.20;97.30;;;;;;5123010;27;20076;-69
2021/01/27 06:01:37;;;;;;;12.23;6.13;;;3.00;97.30;;;;;;5098633;28;20048;-70
2021/01/27 06:04:10;;;;;;;10.43;5.30;;;3.40;97.40;;;;;;5104437;28;20055;-70
2021/01/27 06:06:49;;;;;;;13.52;6.30;;;3.20;97.20;;;;;;5111373;28;20040;-69
2021/01/27 06:09:40;;;;;;;14.88;5.85;;;3.50;97.20;;;;;;5109228;28;20539;-69
2021/01/27 06:12:25;;;;;;;10.05;5.97;;;3.50;96.90;;;;;;5106039;28;20097;-70
2021/01/27 06:15:04;;;;;;;12.05;5.68;;;3.60;96.80;;;;;;5107648;28;20529;-69
2021/01/27 06:17:39;;;;;;;12.98;6.43;;;3.50;96.90;;;;;;5111772;28;20055;-69
2021/01/27 06:20:15;;;;;;;13.48;5.93;;;3.40;96.70;;;;;;5107366;28;20044;-69
2021/01/27 06:22:50;;;;;;;13.02;6.50;;;3.20;96.90;;;;;;5098214;28;20463;-69
2021/01/27 06:25:54;;;;;;;15.02;5.80;;;3.40;97.20;;;;;;5109638;27;20067;-69
2021/01/27 06:28:51;;;;;;;14.32;5.85;;;3.30;97.10;;;;;;5109800;28;20555;-69
2021/01/27 06:31:36;;;;;;;11.00;5.93;;;3.40;96.90;;;;;;5105974;28;20083;-70
2021/01/27 06:34:29;;;;;;;13.90;5.70;;;3.50;96.80;;;;;;5104113;28;20094;-69
2021/01/27 06:37:31;;;;;;;10.75;4.80;;;3.80;96.60;;;;;;5106058;28;20398;-70
2021/01/27 06:40:16;;;;;;;10.60;4.95;;;3.30;96.50;;;;;;5109270;28;20127;-70
2021/01/27 06:42:48;;;;;;;9.57;5.43;;;3.70;96.40;;;;;;5101471;28;20047;-70
2021/01/27 06:45:29;;;;;;;9.38;4.80;;;3.40;96.30;;;;;;5097527;28;20467;-70
2021/01/27 06:48:34;;;;;;;9.93;4.93;;;3.50;96.30;;;;;;5109468;27;20412;-70
2021/01/27 06:51:39;;;;;;;9.98;4.15;;;3.60;96.00;;;;;;5106358;28;20449;-70
2021/01/27 06:54:30;;;;;;;10.23;4.80;;;3.50;96.20;;;;;;5101047;28;20108;-69
2021/01/27 06:57:47;;;;;;;11.50;5.10;;;3.40;96.30;;;;;;5112673;28;20727;-70
2021/01/27 07:00:51;;;;;;;8.00;4.60;;;3.50;96.30;;;;;;5083943;28;20527;-69
2021/01/27 07:03:18;;;;;;;11.35;5.05;;;3.70;96.50;;;;;;5068848;28;20044;-70
2021/01/27 07:05:48;;;;;;;11.15;5.10;;;3.70;96.70;;;;;;5065601;28;20040;-69
2021/01/27 07:08:46;;;;;;;8.23;4.43;;;3.50;96.60;;;;;;5074051;28;20086;-70
2021/01/27 07:11:41;;;;;;;10.43;4.70;;;3.30;97.00;;;;;;5110891;28;20051;-69
2021/01/27 07:14:07;;;;;;;11.68;4.32;;;3.50;97.00;;;;;;5101375;28;20091;-71
2021/01/27 07:17:11;;;;;;;10.30;4.93;;;3.90;97.20;;;;;;5107307;28;20079;-69
2021/01/27 07:19:42;;;;;;;15.10;4.72;;;3.70;97.10;;;;;;5110403;28;20055;-71
2021/01/27 07:22:31;;;;;;;10.15;4.40;;;3.60;97.30;;;;;;5106788;28;20035;-70
2021/01/27 07:25:16;;;;;;;5.85;4.07;;;3.60;97.50;;;;;;5098230;28;20130;-70
2021/01/27 07:27:54;;;;;;;9.32;4.22;;;3.40;98.00;;;;;;5109306;28;20040;-70
2021/01/27 07:30:29;;;;;;;9.77;4.38;;;3.60;98.20;;;;;;5102573;28;20051;-71
2021/01/27 07:32:59;;;;;;;8.63;3.70;;;3.40;98.60;;;;;;5105132;28;20136;-70
2021/01/27 07:35:35;;;;;;;;;;;3.30;99.00;;;;;;5105076;28;20077;-70
2021/01/27 07:38:07;;;;;;;9.85;4.03;;;3.40;99.40;;;;;;5106624;28;20007;-69
2021/01/27 07:40:53;;;;;;;2.30;1.67;;;3.30;99.90;;;;;;5099178;28;20457;-70
2021/01/27 07:43:30;;;;;;;7.93;3.35;;;2.90;99.90;;;;;;5106665;28;20505;-69
2021/01/27 07:45:59;;;;;;;11.27;4.50;;;3.20;99.90;;;;;;5106923;28;20064;-69
2021/01/27 07:48:40;;;;;;;7.18;3.92;;;3.00;99.90;;;;;;5106216;28;20043;-70
2021/01/27 07:51:16;;;;;;;11.13;4.38;;;3.00;99.90;;;;;;5103204;28;20048;-70
2021/01/27 07:53:46;;;;;;;7.93;4.50;;;2.90;99.90;;;;;;5109038;28;20071;-70
2021/01/27 07:56:27;;;;;;;7.25;4.40;;;3.20;99.90;;;;;;5104243;28;20075;-69
2021/01/27 07:58:58;;;;;;;7.55;4.45;;;3.10;99.90;;;;;;5106855;28;20047;-70
2021/01/27 08:01:27;;;;;;;13.43;5.28;;;3.30;99.90;;;;;;5100950;28;20470;-70
2021/01/27 08:04:12;;;;;;;11.53;5.90;;;3.00;99.90;;;;;;5109076;28;20043;-69
2021/01/27 08:06:46;;;;;;;9.77;5.50;;;2.90;99.90;;;;;;5110464;28;20293;-69
2021/01/27 08:09:22;;;;;;;12.40;5.32;;;2.80;99.90;;;;;;5104377;28;20072;-69
2021/01/27 08:11:48;;;;;;;11.20;5.80;;;2.80;99.90;;;;;;5101617;28;20061;-69
2021/01/27 08:14:15;;;;;;;13.88;6.13;;;3.00;99.90;;;;;;5106999;28;20075;-69
2021/01/27 08:16:44;;;;;;;11.77;6.07;;;2.80;99.90;;;;;;5103730;28;20059;-70
2021/01/27 08:19:11;;;;;;;20.70;6.30;;;3.20;99.90;;;;;;5106568;28;20051;-69
2021/01/27 08:21:55;;;;;;;11.55;5.65;;;2.90;99.90;;;;;;5104283;28;20116;-68
2021/01/27 08:24:36;;;;;;;11.90;6.13;;;2.70;99.90;;;;;;5104290;28;20355;-69
2021/01/27 08:27:16;;;;;;;10.70;6.13;;;2.80;99.90;;;;;;5106349;28;20094;-70
2021/01/27 08:29:55;;;;;;;11.98;5.65;;;2.60;99.90;;;;;;5109040;28;20043;-70
2021/01/27 08:32:33;;;;;;;11.80;6.20;;;2.50;99.90;;;;;;5104053;28;20075;-70
2021/01/27 08:35:01;;;;;;;10.82;5.65;;;2.40;99.90;;;;;;5096799;28;20605;-70
2021/01/27 08:37:34;;;;;;;11.20;5.93;;;2.50;99.90;;;;;;5102108;28;20079;-70
2021/01/27 08:40:19;;;;;;;11.73;5.15;;;2.60;99.90;;;;;;5104123;28;20087;-72
2021/01/27 08:42:53;;;;;;;10.45;5.57;;;2.70;99.90;;;;;;5108183;28;20120;-72
2021/01/27 08:45:22;;;;;;;11.05;5.68;;;2.70;99.90;;;;;;5109116;28;20124;-72
2021/01/27 08:47:50;;;;;;;10.07;5.25;;;2.70;99.90;;;;;;5099913;28;20485;-71
2021/01/27 08:50:47;;;;;;;12.40;5.53;;;2.90;99.90;;;;;;5111762;28;20449;-70
2021/01/27 08:53:19;;;;;;;11.95;5.97;;;3.00;99.90;;;;;;5112953;28;20047;-70
2021/01/27 08:55:45;;;;;;;8.25;5.15;;;2.60;99.90;;;;;;5108298;28;20096;-68
2021/01/27 08:58:38;;;;;;;13.07;6.10;;;2.50;99.90;;;;;;5093768;28;20140;-68
2021/01/27 09:01:23;;;;;;;12.55;5.90;;;2.80;99.90;;;;;;5100721;28;20455;-68
2021/01/27 09:03:52;;;;;;;13.77;6.32;;;2.60;99.90;;;;;;5101964;28;20925;-67
2021/01/27 09:06:27;;;;;;;8.90;4.50;;;2.60;99.90;;;;;;5101932;28;20086;-67
2021/01/27 09:09:23;;;;;;;12.75;5.20;;;2.80;99.90;;;;;;5100270;28;20056;-68
2021/01/27 09:12:00;;;;;;;14.30;5.68;;;2.30;99.90;;;;;;5100812;28;20087;-68
2021/01/27 09:14:27;;;;;;;8.45;5.32;;;2.50;99.90;;;;;;5097941;27;20059;-69
2021/01/27 09:16:54;;;;;;;10.40;6.03;;;2.70;99.90;;;;;;5099981;27;20134;-70
2021/01/27 09:19:25;;;;;;;12.48;6.25;;;2.20;99.90;;;;;;5099751;28;20059;-69
2021/01/27 09:21:59;;;;;;;12.85;6.55;;;2.60;99.90;;;;;;5100043;28;20127;-69
2021/01/27 09:24:35;;;;;;;10.52;5.85;;;2.70;99.90;;;;;;5100195;28;20112;-69
2021/01/27 09:27:13;;;;;;;12.82;5.90;;;2.70;99.90;;;;;;5099752;28;20238;-70
2021/01/27 09:29:40;;;;;;;9.98;5.97;;;2.40;99.90;;;;;;5099446;28;20136;-69
2021/01/27 09:32:18;;;;;;;10.15;5.93;;;2.40;99.90;;;;;;5098026;28;20139;-69
2021/01/27 09:34:45;;;;;;;11.73;6.90;;;2.40;99.90;;;;;;5100194;28;20048;-69
2021/01/27 09:37:38;;;;;;;13.00;6.60;;;2.60;99.90;;;;;;5098850;28;20155;-70
2021/01/27 09:40:17;;;;;;;12.55;6.68;;;2.70;99.90;;;;;;5097208;28;20058;-71
2021/01/27 09:42:43;;;;;;;13.55;6.82;;;2.30;99.90;;;;;;5100782;28;20602;-72
2021/01/27 09:45:12;;;;;;;11.07;6.47;;;2.30;99.90;;;;;;5098007;27;20139;-71
2021/01/27 09:47:44;;;;;;;11.13;6.70;;;2.30;99.90;;;;;;5099743;28;20134;-72
2021/01/27 09:50:12;;;;;;;10.23;6.30;;;2.30;99.90;;;;;;5099331;28;20061;-72
2021/01/27 09:52:42;;;;;;;11.45;6.47;;;2.40;99.90;;;;;;5097857;28;20059;-72
2021/01/27 09:55:12;;;;;;;10.70;6.53;;;2.50;99.90;;;;;;5099572;28;20510;-72
2021/01/27 09:57:40;;;;;;;16.38;7.10;;;2.40;99.90;;;;;;5099443;28;20564;-72
2021/01/27 10:00:22;;;;;;;11.85;7.03;;;2.60;99.90;;;;;;5098962;28;20153;-72
2021/01/27 10:02:48;;;;;;;14.20;6.50;;;2.50;99.90;;;;;;5106262;27;20071;-72
2021/01/27 10:05:35;;;;;;;10.15;6.00;;;2.20;99.90;;;;;;5107972;27;20047;-72
2021/01/27 10:08:07;;;;;;;13.27;6.70;;;2.40;99.90;;;;;;5104654;28;20413;-72
2021/01/27 10:10:34;;;;;;;12.48;6.25;;;2.30;99.90;;;;;;5109518;28;20062;-73
2021/01/27 10:13:00;;;;;;;11.82;5.32;;;2.40;99.90;;;;;;5109010;28;20051;-70
2021/01/27 10:15:30;;;;;;;12.48;5.78;;;2.40;99.90;;;;;;5108905;28;20064;-73
2021/01/27 10:18:19;;;;;;;8.85;5.45;;;2.40;99.90;;;;;;5112604;28;20484;-70
2021/01/27 10:20:47;;;;;;;10.15;5.50;;;2.10;99.90;;;;;;5110118;28;20092;-72
2021/01/27 10:23:34;;;;;;;9.55;5.47;;;2.60;99.90;;;;;;5111116;28;20079;-73
2021/01/27 10:26:29;;;;;;;8.32;5.63;;;2.50;99.90;;;;;;5112372;28;20069;-70
2021/01/27 10:29:17;;;;;;;9.60;5.25;;;2.50;99.90;;;;;;5097051;28;20131;-71
2021/01/27 10:31:47;;;;;;;9.68;5.70;;;2.50;99.90;;;;;;5097837;28;20144;-72
2021/01/27 10:34:36;;;;;;;8.55;5.57;;;2.40;99.90;;;;;;5098171;28;20874;-71
2021/01/27 10:37:03;;;;;;;9.63;5.20;;;2.40;99.90;;;;;;5099528;28;20097;-71
2021/01/27 10:39:31;;;;;;;11.10;6.03;;;2.50;99.90;;;;;;5097508;28;20047;-73
2021/01/27 10:42:06;;;;;;;13.63;6.40;;;2.50;99.90;;;;;;5098200;28;20526;-72
2021/01/27 10:44:35;;;;;;;10.38;6.47;;;2.60;99.90;;;;;;5099218;27;20932;-71
2021/01/27 10:47:29;;;;;;;11.65;6.82;;;2.70;99.90;;;;;;5099491;28;20048;-71
2021/01/27 10:49:57;;;;;;;10.05;6.10;;;2.70;99.90;;;;;;5093243;28;20056;-72
2021/01/27 10:52:27;;;;;;;11.02;6.10;;;2.70;99.90;;;;;;5099893;28;20154;-71
2021/01/27 10:54:57;;;;;;;9.82;6.00;;;2.80;99.90;;;;;;5098037;28;20140;-71
2021/01/27 10:57:24;;;;;;;8.63;5.15;;;2.90;99.90;;;;;;5100413;28;20100;-70
2021/01/27 10:59:52;;;;;;;8.02;5.28;;;2.80;99.90;;;;;;5098273;28;20109;-71
2021/01/27 11:02:19;;;;;;;12.27;5.70;;;2.90;99.90;;;;;;5097324;28;20511;-71
2021/01/27 11:04:46;;;;;;;8.45;4.88;;;3.20;99.90;;;;;;5097812;28;20043;-71
2021/01/27 11:07:13;;;;;;;7.35;4.32;;;3.00;99.90;;;;;;5097340;28;20059;-71
2021/01/27 11:09:41;;;;;;;7.82;4.82;;;3.10;99.90;;;;;;5098687;28;20078;-73
2021/01/27 11:12:07;;;;;;;8.55;4.53;;;3.00;99.90;;;;;;5097268;27;20687;-70
2021/01/27 11:14:34;;;;;;;8.48;5.05;;;2.80;99.90;;;;;;5098304;28;20912;-71
2021/01/27 11:17:01;;;;;;;9.73;5.00;;;3.00;99.90;;;;;;5098461;28;20052;-70
2021/01/27 11:19:28;;;;;;;10.55;5.40;;;2.80;99.90;;;;;;5098537;28;20047;-71
2021/01/27 11:21:54;;;;;;;8.70;4.78;;;2.90;99.90;;;;;;5098620;28;20152;-71
2021/01/27 11:24:20;;;;;;;6.97;4.18;;;2.90;99.90;;;;;;5098287;28;20134;-70
2021/01/27 11:26:46;;;;;;;7.47;5.00;;;2.90;99.90;;;;;;5097567;28;20848;-71
2021/01/27 11:29:13;;;;;;;8.68;5.38;;;2.90;99.90;;;;;;5098781;28;20478;-71
2021/01/27 11:31:39;;;;;;;8.10;4.70;;;3.10;99.90;;;;;;5096977;28;20051;-72
2021/01/27 11:34:06;;;;;;;6.55;4.38;;;3.00;99.90;;;;;;5097638;28;20051;-72
2021/01/27 11:36:32;;;;;;;7.63;3.90;;;2.80;99.90;;;;;;5098763;28;20166;-74
2021/01/27 11:38:59;;;;;;;7.43;4.55;;;2.70;99.90;;;;;;5098582;28;20557;-72
2021/01/27 11:41:26;;;;;;;7.32;4.90;;;3.00;99.90;;;;;;5099433;28;20736;-72
2021/01/27 11:43:52;;;;;;;7.47;4.65;;;2.80;99.90;;;;;;5099685;28;20044;-72
2021/01/27 11:46:20;;;;;;;7.95;5.00;;;3.20;99.90;;;;;;5098766;28;20044;-72
2021/01/27 11:48:47;;;;;;;7.07;4.32;;;3.00;99.90;;;;;;5097423;28;20048;-72
2021/01/27 11:51:15;;;;;;;7.28;4.72;;;3.20;99.90;;;;;;5097647;28;20827;-70
2021/01/27 11:53:42;;;;;;;7.68;4.75;;;3.00;99.90;;;;;;5098690;28;20055;-71
2021/01/27 11:56:11;;;;;;;6.22;4.85;;;3.10;99.90;;;;;;5098056;28;20070;-73
2021/01/27 11:58:37;;;;;;;7.97;5.05;;;3.00;99.90;;;;;;5098625;28;20051;-73
2021/01/27 12:01:04;;;;;;;5.85;4.28;;;2.90;99.90;;;;;;5096097;28;21424;-69
2021/01/27 12:03:32;;;;;;;9.18;5.43;;;3.20;99.90;;;;;;5098293;28;20083;-70
2021/01/27 12:05:58;;;;;;;12.40;5.10;;;3.00;99.90;;;;;;5098245;28;20535;-70
2021/01/27 12:08:25;;;;;;;8.80;5.20;;;3.00;99.90;;;;;;5097126;28;20042;-70
2021/01/27 12:10:51;;;;;;;8.02;4.18;;;3.30;99.90;;;;;;5097517;28;20075;-69
2021/01/27 12:13:18;;;;;;;8.00;5.00;;;3.10;99.90;;;;;;5097061;28;20577;-70
2021/01/27 12:15:44;;;;;;;6.00;4.40;;;3.00;99.90;;;;;;5097811;28;20443;-71
2021/01/27 12:18:13;;;;;;;5.45;4.15;;;3.20;99.90;;;;;;5100987;28;20084;-72
2021/01/27 12:20:40;;;;;;;7.50;4.55;;;3.10;99.90;;;;;;5100809;28;20577;-71
2021/01/27 12:23:07;;;;;;;6.97;4.75;;;3.00;99.90;;;;;;5102738;28;20150;-71
2021/01/27 12:25:33;;;;;;;7.35;4.53;;;3.00;99.90;;;;;;5101481;27;20093;-81
2021/01/27 12:27:59;;;;;;;7.30;4.28;;;2.80;99.90;;;;;;5099685;28;20158;-77
2021/01/27 12:30:26;;;;;;;9.75;4.75;;;2.90;99.90;;;;;;5099992;28;20044;-69
2021/01/27 12:32:53;;;;;;;7.80;3.90;;;3.10;99.90;;;;;;5099956;28;20055;-78
2021/01/27 12:35:21;;;;;;;10.25;4.50;;;2.80;99.90;;;;;;5102423;28;20784;-75
2021/01/27 12:37:48;;;;;;;6.40;4.57;;;2.90;99.90;;;;;;5101633;28;20079;-71
2021/01/27 12:40:18;;;;;;;6.65;4.15;;;3.00;99.90;;;;;;5101793;28;20135;-70
2021/01/27 12:42:44;;;;;;;7.10;3.83;;;2.80;99.90;;;;;;5100817;28;20130;-71
2021/01/27 12:45:14;;;;;;;10.30;4.43;;;2.80;99.90;;;;;;5101670;27;20048;-70
2021/01/27 12:47:40;;;;;;;7.32;3.42;;;2.80;99.90;;;;;;5100742;28;20052;-70
2021/01/27 12:50:08;;;;;;;5.20;4.15;;;2.80;99.90;;;;;;5102458;28;20051;-70
2021/01/27 12:52:35;;;;;;;6.63;3.72;;;2.80;99.90;;;;;;5101509;28;20558;-70
2021/01/27 12:55:01;;;;;;;5.25;3.92;;;3.00;99.90;;;;;;5100018;28;20140;-70
2021/01/27 12:57:28;;;;;;;6.45;3.80;;;3.10;99.90;;;;;;5103067;28;20567;-71
2021/01/27 12:59:54;;;;;;;6.15;3.53;;;2.90;99.90;;;;;;5101075;28;20809;-71
2021/01/27 13:02:21;;;;;;;7.15;3.75;;;3.10;99.90;;;;;;5100562;28;20166;-70
2021/01/27 13:04:47;;;;;;;7.50;3.97;;;2.80;99.90;;;;;;5102298;28;20047;-71
2021/01/27 13:07:13;;;;;;;6.60;4.00;;;2.80;99.90;;;;;;5099555;28;20048;-71
2021/01/27 13:09:41;;;;;;;6.45;4.10;;;3.10;99.90;;;;;;5101150;28;20052;-71
2021/01/27 13:12:07;;;;;;;5.75;3.65;;;3.30;99.90;;;;;;5100587;28;20083;-71
2021/01/27 13:14:34;;;;;;;6.03;3.70;;;3.50;99.90;;;;;;5100391;28;20059;-70
2021/01/27 13:17:11;;;;;;;4.60;3.63;;;3.30;99.90;;;;;;5100718;28;20135;-69
2021/01/27 13:19:38;;;;;;;5.28;3.65;;;2.80;99.90;;;;;;5099418;28;21267;-70
2021/01/27 13:22:04;;;;;;;6.38;3.85;;;3.00;99.90;;;;;;5101539;28;20070;-69
2021/01/27 13:24:31;;;;;;;6.15;3.55;;;3.20;99.90;;;;;;5101271;27;20553;-71
2021/01/27 13:26:57;;;;;;;4.38;3.28;;;3.00;99.90;;;;;;5099188;28;20044;-70
2021/01/27 13:29:23;;;;;;;6.55;4.05;;;3.20;99.90;;;;;;5099982;28;20047;-71